Time;durP1;ratioP1;P1;durP2;ratioP2;P2;SDS_P1;SDS_P2;PMS_P1;PMS_P2;Temp;Humidity;BMP_temperature;BMP_pressure;BME280_temperature;BME280_humidity;BME280_pressure;Samples;Min_cycle;Max_cycle;Signal;HPM_P1;HPM_P2
2023/05/22 00:00:13;;;;;;;;;;;;;;;18.53;70.01;100933.28;5009749;28;19929;-81
2023/05/22 00:02:41;;;;;;;;;;;;;;;18.49;71.27;100932.78;5019317;28;19929;-83
2023/05/22 00:05:12;;;;;;;;;;;;;;;18.47;71.21;100932.16;5031371;28;20285;-81
2023/05/22 00:07:41;;;;;;;;;;;;;;;18.44;69.42;100908.28;5014590;28;20351;-81
2023/05/22 00:10:09;;;;;;;;;;;;;;;18.53;70.06;100923.34;5033022;28;19928;-82
2023/05/22 00:12:36;;;;;;;;;;;;;;;18.48;70.26;100925.75;5029656;28;19924;-83
2023/05/22 00:15:03;;;;;;;;;;;;;;;18.41;70.58;100923.97;5022308;28;20164;-82
2023/05/22 00:17:30;;;;;;;;;;;;;;;18.39;70.63;100926.00;4983336;28;20347;-81
2023/05/22 00:20:05;;;;;;;;;;;;;;;18.36;71.29;100927.19;5002750;28;19990;-82
2023/05/22 00:22:34;;;;;;;;;;;;;;;18.49;70.62;100927.41;5037355;28;20516;-81
2023/05/22 00:25:10;;;;;;;;;;;;;;;18.54;70.25;100919.66;5026450;28;20323;-81
2023/05/22 00:27:36;;;;;;;;;;;;;;;18.52;71.16;100920.84;5012566;28;19979;-83
2023/05/22 00:30:03;;;;;;;;;;;;;;;18.50;70.34;100917.50;5018230;28;20481;-82
2023/05/22 00:32:30;;;;;;;;;;;;;;;18.46;70.75;100914.34;4994108;28;20559;-82
2023/05/22 00:34:57;;;;;;;;;;;;;;;18.44;71.63;100913.69;5020613;28;20031;-82
2023/05/22 00:37:26;;;;;;;;;;;;;;;18.10;71.25;100857.69;5025822;28;20421;-81
2023/05/22 00:39:53;;;;;;;;;;;;;;;18.39;71.81;100910.69;5039122;28;20486;-81
2023/05/22 00:42:20;;;;;;;;;;;;;;;18.40;71.89;100907.00;5033589;28;19929;-81
2023/05/22 00:44:49;;;;;;;;;;;;;;;18.50;71.06;100910.28;5000077;28;19940;-82
2023/05/22 00:47:17;;;;;;;;;;;;;;;18.22;70.84;100855.41;4988323;28;20383;-81
2023/05/22 00:49:44;;;;;;;;;;;;;;;18.62;70.51;100916.06;5009895;28;19948;-81
2023/05/22 00:52:13;;;;;;;;;;;;;;;18.70;69.66;100910.59;4994999;28;19929;-82
2023/05/22 00:54:43;;;;;;;;;;;;;;;18.30;70.12;100869.63;4979006;28;20575;-81
2023/05/22 00:57:15;;;;;;;;;;;;;;;18.59;71.04;100911.03;4982915;28;20322;-82
2023/05/22 00:59:44;;;;;;;;;;;;;;;18.61;70.56;100909.00;4990126;28;19933;-81
2023/05/22 01:02:15;;;;;;;;;;;;;;;18.58;71.87;100912.88;4995872;28;20334;-82
2023/05/22 01:04:49;;;;;;;;;;;;;;;18.52;72.02;100910.06;5001978;28;19925;-82
2023/05/22 01:07:16;;;;;;;;;;;;;;;18.44;72.17;100913.69;5018253;28;19936;-81
2023/05/22 01:09:43;;;;;;;;;;;;;;;18.42;73.11;100914.88;5033859;28;19943;-82
2023/05/22 01:12:15;;;;;;;;;;;;;;;18.37;72.94;100915.41;5012008;28;19933;-81
2023/05/22 01:14:50;;;;;;;;;;;;;;;18.38;73.21;100909.03;5016236;28;20035;-83
2023/05/22 01:17:33;;;;;;;;;;;;;;;18.02;73.54;100869.31;5029727;28;20379;-81
2023/05/22 01:20:19;;;;;;;;;;;;;;;18.34;73.35;100921.16;5029405;28;20290;-81
2023/05/22 01:23:01;;;;;;;;;;;;;;;18.34;72.76;100921.16;5016672;28;19929;-82
2023/05/22 01:25:39;;;;;;;;;;;;;;;18.39;72.33;100916.06;5015561;28;19971;-82
2023/05/22 01:28:35;;;;;;;;;;;;;;;18.48;72.05;100912.31;5038114;28;19929;-81
2023/05/22 01:31:06;;;;;;;;;;;;;;;18.51;71.91;100917.31;5016676;28;19932;-82
2023/05/22 01:33:41;;;;;;;;;;;;;;;18.54;71.56;100916.97;5005725;28;19935;-82
2023/05/22 01:36:09;;;;;;;;;;;;;;;18.61;71.65;100921.59;5036983;28;19931;-82
2023/05/22 01:38:39;;;;;;;;;;;;;;;18.61;71.51;100929.69;5027772;28;20878;-82
2023/05/22 01:41:06;;;;;;;;;;;;;;;18.70;70.68;100923.22;5027425;28;19970;-81
2023/05/22 01:43:33;;;;;;;;;;;;;;;18.69;71.17;100921.53;5025923;28;19959;-82
2023/05/22 01:46:00;;;;;;;;;;;;;;;18.67;71.24;100923.59;5019970;28;20276;-83
2023/05/22 01:48:27;;;;;;;;;;;;;;;18.69;71.08;100918.84;5022045;28;20485;-82
2023/05/22 01:50:59;;;;;;;;;;;;;;;18.70;71.43;100920.53;5000350;28;20100;-82
2023/05/22 01:53:31;;;;;;;;;;;;;;;18.69;71.27;100921.53;4987576;28;20808;-82
2023/05/22 01:56:13;;;;;;;;;;;;;;;18.71;71.17;100916.81;5013096;28;20123;-81
2023/05/22 01:58:46;;;;;;;;;;;;;;;18.69;71.36;100929.59;5006649;28;20770;-82
2023/05/22 02:01:18;;;;;;;;;;;;;;;18.40;71.44;100880.13;4974239;28;20174;-81
2023/05/22 02:03:50;;;;;;;;;;;;;;;18.71;71.34;100932.94;4988642;28;19926;-82
2023/05/22 02:06:18;;;;;;;;;;;;;;;18.77;71.11;100924.19;4979603;28;19932;-82
2023/05/22 02:08:44;;;;;;;;;;;;;;;18.83;70.80;100917.25;5018274;28;20390;-81
2023/05/22 02:11:11;;;;;;;;;;;;;;;18.84;70.76;100917.06;5021762;28;20203;-82
2023/05/22 02:13:41;;;;;;;;;;;;;;;18.76;71.22;100915.28;5022821;28;19935;-82
2023/05/22 02:16:11;;;;;;;;;;;;;;;18.78;71.27;100917.78;5028095;28;19929;-82
2023/05/22 02:18:40;;;;;;;;;;;;;;;18.79;71.05;100917.63;5021119;28;19933;-81
2023/05/22 02:21:07;;;;;;;;;;;;;;;18.85;70.96;100924.09;5002403;28;19932;-82
2023/05/22 02:23:34;;;;;;;;;;;;;;;18.79;71.57;100923.00;4987244;28;20019;-82
2023/05/22 02:26:04;;;;;;;;;;;;;;;18.78;71.10;100920.47;4985355;28;19925;-81
2023/05/22 02:28:32;;;;;;;;;;;;;;;18.75;71.53;100916.25;4992194;28;20056;-82
2023/05/22 02:31:02;;;;;;;;;;;;;;;18.45;71.13;100864.28;4997522;28;20049;-82
2023/05/22 02:33:30;;;;;;;;;;;;;;;18.76;71.66;100919.81;5004128;28;19924;-82
2023/05/22 02:36:00;;;;;;;;;;;;;;;18.45;71.72;100872.34;5021163;28;19925;-82
2023/05/22 02:38:30;;;;;;;;;;;;;;;18.74;71.77;100917.28;5022311;28;20448;-82
2023/05/22 02:40:57;;;;;;;;;;;;;;;18.87;71.10;100918.56;5004473;28;20369;-82
2023/05/22 02:43:24;;;;;;;;;;;;;;;18.75;71.68;100915.44;5014298;28;20236;-81
2023/05/22 02:45:51;;;;;;;;;;;;;;;18.69;71.89;100921.53;5025914;28;19956;-82
2023/05/22 02:48:18;;;;;;;;;;;;;;;18.69;71.86;100918.84;5006357;28;20023;-81
2023/05/22 02:50:47;;;;;;;;;;;;;;;18.71;71.56;100919.50;5020951;28;19928;-80
2023/05/22 02:53:15;;;;;;;;;;;;;;;18.73;71.56;100923.66;5022508;28;19925;-82
2023/05/22 02:55:42;;;;;;;;;;;;;;;18.63;72.16;100920.41;5026638;28;19929;-81
2023/05/22 02:58:10;;;;;;;;;;;;;;;18.55;72.75;100915.94;5037463;28;19925;-84
2023/05/22 03:00:37;;;;;;;;;;;;;;;18.54;72.62;100908.03;5020272;28;19931;-82
2023/05/22 03:03:07;;;;;;;;;;;;;;;18.57;72.01;100919.28;5032961;28;19979;-83
2023/05/22 03:05:34;;;;;;;;;;;;;;;18.52;72.64;100905.56;5007593;28;19929;-82
2023/05/22 03:08:00;;;;;;;;;;;;;;;18.70;71.56;100913.28;4991134;28;19936;-82
2023/05/22 03:10:27;;;;;;;;;;;;;;;18.69;71.44;100924.22;4996151;28;19925;-82
2023/05/22 03:12:54;;;;;;;;;;;;;;;18.60;71.85;100919.94;4996660;28;19957;-81
2023/05/22 03:15:20;;;;;;;;;;;;;;;18.47;72.94;100925.91;4977146;28;20322;-82
2023/05/22 03:17:52;;;;;;;;;;;;;;;18.44;73.04;100924.44;4993149;28;19929;-82
2023/05/22 03:20:28;;;;;;;;;;;;;;;18.33;73.03;100903.38;4986726;28;20145;-82
2023/05/22 03:22:57;;;;;;;;;;;;;;;18.32;73.86;100909.75;4983592;28;20224;-83
2023/05/22 03:25:24;;;;;;;;;;;;;;;18.42;72.55;100907.63;4986961;28;19925;-82
2023/05/22 03:27:55;;;;;;;;;;;;;;;18.44;72.88;100908.28;4983876;28;19932;-82
2023/05/22 03:30:24;;;;;;;;;;;;;;;18.40;73.05;100919.59;4989926;28;19933;-82
2023/05/22 03:32:55;;;;;;;;;;;;;;;18.40;73.41;100911.53;5002511;28;19925;-81
2023/05/22 03:35:23;;;;;;;;;;;;;;;18.35;73.57;100915.59;4998044;28;20152;-82
2023/05/22 03:37:50;;;;;;;;;;;;;;;18.34;73.83;100918.47;4995376;28;20321;-82
2023/05/22 03:40:16;;;;;;;;;;;;;;;18.45;73.15;100915.38;4997147;28;20359;-81
2023/05/22 03:42:43;;;;;;;;;;;;;;;18.31;74.04;100922.34;4983893;28;19925;-81
2023/05/22 03:45:12;;;;;;;;;;;;;;;18.27;74.10;100928.25;4984363;28;19975;-81
2023/05/22 03:47:40;;;;;;;;;;;;;;;18.23;73.94;100926.94;4985367;28;19926;-83
2023/05/22 03:50:10;;;;;;;;;;;;;;;18.25;73.90;100935.66;4974870;28;20425;-81
2023/05/22 03:52:41;;;;;;;;;;;;;;;18.18;74.23;100930.19;4976078;28;19925;-81
2023/05/22 03:55:07;;;;;;;;;;;;;;;18.24;73.98;100931.31;4962190;28;19925;-82
2023/05/22 03:57:34;;;;;;;;;;;;;;;18.19;73.95;100929.16;4995826;28;20039;-82
2023/05/22 04:00:08;;;;;;;;;;;;;;;18.13;74.14;100928.03;4967520;28;20061;-81
2023/05/22 04:02:37;;;;;;;;;;;;;;;18.10;74.45;100933.72;4989598;28;19959;-82
2023/05/22 04:05:05;;;;;;;;;;;;;;;18.13;74.26;100941.47;5038708;28;19935;-82
2023/05/22 04:07:35;;;;;;;;;;;;;;;18.12;74.50;100931.72;4992139;28;20135;-83
2023/05/22 04:10:03;;;;;;;;;;;;;;;18.10;74.63;100944.47;5017070;28;20023;-82
2023/05/22 04:12:30;;;;;;;;;;;;;;;18.22;74.02;100941.41;4981397;28;20379;-81
2023/05/22 04:15:01;;;;;;;;;;;;;;;18.15;74.24;100952.84;4991453;28;20676;-82
2023/05/22 04:17:39;;;;;;;;;;;;;;;18.18;74.21;100951.69;4994585;28;19930;-81
2023/05/22 04:20:06;;;;;;;;;;;;;;;18.14;74.35;100955.72;4996349;28;20019;-82
2023/05/22 04:22:33;;;;;;;;;;;;;;;18.24;73.92;100956.31;5010883;28;20393;-80
2023/05/22 04:25:00;;;;;;;;;;;;;;;18.18;74.14;100959.75;5020318;28;19929;-81
2023/05/22 04:27:28;;;;;;;;;;;;;;;18.13;74.35;100960.25;5020652;28;19931;-80
2023/05/22 04:29:55;;;;;;;;;;;;;;;18.12;74.29;100960.44;5028597;28;19931;-80
2023/05/22 04:32:25;;;;;;;;;;;;;;;18.21;73.79;100953.16;5023796;28;19925;-80
2023/05/22 04:34:52;;;;;;;;;;;;;;;18.15;74.18;100957.38;5025927;28;20212;-81
2023/05/22 04:37:20;;;;;;;;;;;;;;;17.77;74.72;100899.97;5023787;28;20023;-80
2023/05/22 04:39:52;;;;;;;;;;;;;;;18.14;74.30;100953.88;5013554;28;20417;-80
2023/05/22 04:42:19;;;;;;;;;;;;;;;18.23;74.34;100959.19;5005568;28;20114;-81
2023/05/22 04:44:48;;;;;;;;;;;;;;;18.20;74.38;100954.16;5030516;28;20255;-80
2023/05/22 04:47:16;;;;;;;;;;;;;;;17.95;73.51;100914.03;5035317;28;19928;-81
2023/05/22 04:49:44;;;;;;;;;;;;;;;18.35;73.42;100960.47;5036632;28;20348;-81
2023/05/22 04:52:11;;;;;;;;;;;;;;;18.36;73.23;100967.50;5017676;28;19924;-80
2023/05/22 04:54:37;;;;;;;;;;;;;;;18.39;73.10;100969.81;5012812;28;19928;-81
2023/05/22 04:57:04;;;;;;;;;;;;;;;18.35;73.48;100976.59;5010690;28;20133;-80
2023/05/22 04:59:32;;;;;;;;;;;;;;;18.31;73.72;100972.56;5019587;28;20025;-79
2023/05/22 05:01:59;;;;;;;;;;;;;;;18.43;72.84;100975.69;4992257;28;19924;-81
2023/05/22 05:04:25;;;;;;;;;;;;;;;18.39;73.38;100974.38;5029640;28;19931;-81
2023/05/22 05:06:52;;;;;;;;;;;;;;;18.38;73.40;100973.53;5019629;28;20394;-81
2023/05/22 05:09:19;;;;;;;;;;;;;;;18.21;72.76;100934.34;5002686;28;19925;-80
2023/05/22 05:11:46;;;;;;;;;;;;;;;18.58;72.47;100980.09;5011057;28;20168;-80
2023/05/22 05:14:15;;;;;;;;;;;;;;;18.33;72.44;100932.94;5020183;28;19931;-80
2023/05/22 05:16:45;;;;;;;;;;;;;;;18.69;72.20;100980.69;5039527;28;19936;-81
2023/05/22 05:19:12;;;;;;;;;;;;;;;18.70;71.85;100988.59;5026892;28;20023;-81
2023/05/22 05:21:42;;;;;;;;;;;;;;;18.78;71.76;100985.03;5010495;28;19932;-80
2023/05/22 05:24:17;;;;;;;;;;;;;;;18.79;71.56;100976.78;5016532;28;20394;-79
2023/05/22 05:26:43;;;;;;;;;;;;;;;18.74;72.00;100972.94;5039210;28;19928;-80
2023/05/22 05:29:11;;;;;;;;;;;;;;;18.73;72.36;100979.31;5032111;28;19929;-81
2023/05/22 05:31:38;;;;;;;;;;;;;;;18.78;72.25;100985.84;5030877;28;20210;-80
2023/05/22 05:34:05;;;;;;;;;;;;;;;18.85;71.92;100983.28;5017985;28;19990;-82
2023/05/22 05:36:31;;;;;;;;;;;;;;;18.90;71.54;100972.81;5027046;28;20037;-81
2023/05/22 05:38:59;;;;;;;;;;;;;;;19.06;70.82;100979.06;5018824;28;19928;-82
2023/05/22 05:41:29;;;;;;;;;;;;;;;19.04;71.12;100978.41;5026426;28;20356;-81
2023/05/22 05:43:58;;;;;;;;;;;;;;;19.09;70.55;100976.00;5000521;28;19924;-81
2023/05/22 05:46:25;;;;;;;;;;;;;;;19.02;71.04;100980.44;5026698;28;20521;-81
2023/05/22 05:48:52;;;;;;;;;;;;;;;19.00;71.03;100975.25;5032780;28;20401;-81
2023/05/22 05:51:20;;;;;;;;;;;;;;;19.00;71.53;100973.41;5007944;28;19928;-82
2023/05/22 05:53:50;;;;;;;;;;;;;;;19.04;71.55;100967.66;5019650;28;19976;-82
2023/05/22 05:56:16;;;;;;;;;;;;;;;19.14;70.44;100978.97;5008447;28;19929;-82
2023/05/22 05:58:43;;;;;;;;;;;;;;;19.15;70.82;100978.81;5016995;28;20298;-81
2023/05/22 06:01:13;;;;;;;;;;;;;;;19.01;70.75;100963.47;5019161;28;19978;-81
2023/05/22 06:03:45;;;;;;;;;;;;;;;19.17;71.05;100995.59;5008337;28;19947;-85
2023/05/22 06:06:14;;;;;;;;;;;;;;;19.16;71.24;100993.09;5001873;28;20338;-82
2023/05/22 06:08:41;;;;;;;;;;;;;;;19.19;71.47;101001.63;4974030;28;20320;-82
2023/05/22 06:11:10;;;;;;;;;;;;;;;18.81;71.52;100938.09;4988425;28;20520;-83
2023/05/22 06:13:43;;;;;;;;;;;;;;;19.23;71.84;101010.19;4991040;28;19970;-82
2023/05/22 06:16:15;;;;;;;;;;;;;;;19.40;71.35;101009.00;5005281;28;20446;-82
2023/05/22 06:18:48;;;;;;;;;;;;;;;19.49;70.76;101003.50;4998995;28;20153;-82
2023/05/22 06:21:16;;;;;;;;;;;;;;;19.55;70.47;100997.41;5003813;28;19928;-83
2023/05/22 06:23:48;;;;;;;;;;;;;;;19.66;69.80;101005.03;5026521;28;20412;-83
2023/05/22 06:26:17;;;;;;;;;;;;;;;19.72;69.82;101001.59;5031037;28;19931;-83
2023/05/22 06:28:46;;;;;;;;;;;;;;;19.78;69.45;101008.09;5017812;28;20341;-83
2023/05/22 06:31:16;;;;;;;;;;;;;;;19.27;69.15;100906.50;5017573;28;19937;-83
2023/05/22 06:33:48;;;;;;;;;;;;;;;19.69;68.50;100958.88;4999656;28;19936;-83
2023/05/22 06:36:17;;;;;;;;;;;;;;;19.84;69.77;101007.34;5001331;28;19925;-82
2023/05/22 06:38:48;;;;;;;;;;;;;;;19.96;69.23;101002.31;5006757;28;19924;-83
2023/05/22 06:41:17;;;;;;;;;;;;;;;19.93;69.57;100994.59;5038393;28;20391;-83
2023/05/22 06:43:44;;;;;;;;;;;;;;;20.03;68.76;101000.56;5037890;28;19964;-82
2023/05/22 06:46:11;;;;;;;;;;;;;;;19.99;69.04;101001.94;5039262;28;20298;-83
2023/05/22 06:48:39;;;;;;;;;;;;;;;20.13;68.23;101006.47;5044157;28;19929;-82
2023/05/22 06:51:10;;;;;;;;;;;;;;;19.74;68.20;100939.47;5015782;28;20190;-82
2023/05/22 06:53:43;;;;;;;;;;;;;;;20.24;67.90;101008.69;5034893;28;20019;-82
2023/05/22 06:56:15;;;;;;;;;;;;;;;20.22;68.23;101009.88;5038667;28;19932;-82
2023/05/22 06:58:41;;;;;;;;;;;;;;;20.22;68.60;101010.72;5035998;28;20344;-82
2023/05/22 07:01:08;;;;;;;;;;;;;;;20.26;68.40;101009.31;5024864;28;20202;-81
2023/05/22 07:03:35;;;;;;;;;;;;;;;20.35;68.28;101006.50;5028273;28;19967;-82
2023/05/22 07:06:02;;;;;;;;;;;;;;;20.40;67.71;101013.00;4995386;28;20415;-82
2023/05/22 07:08:29;;;;;;;;;;;;;;;20.32;68.07;101009.59;5004513;28;19928;-82
2023/05/22 07:10:56;;;;;;;;;;;;;;;20.35;68.05;101009.22;5028582;28;20019;-84
2023/05/22 07:13:24;;;;;;;;;;;;;;;20.35;68.38;101014.59;5034998;28;20044;-83
2023/05/22 07:16:01;;;;;;;;;;;;;;;20.45;68.10;101010.56;5049102;28;20283;-83
2023/05/22 07:18:28;;;;;;;;;;;;;;;20.42;68.74;101010.13;5033230;28;19934;-83
2023/05/22 07:20:55;;;;;;;;;;;;;;;20.37;69.07;101012.56;5043424;28;20045;-83
2023/05/22 07:23:21;;;;;;;;;;;;;;;20.47;68.51;101018.47;5013450;28;19940;-85
2023/05/22 07:25:52;;;;;;;;;;;;;;;20.48;68.93;101014.72;5021519;28;19924;-81
2023/05/22 07:28:18;;;;;;;;;;;;;;;20.53;68.90;101020.38;5018264;28;19924;-82
2023/05/22 07:30:45;;;;;;;;;;;;;;;20.65;68.23;101015.34;5013034;28;20287;-82
2023/05/22 07:33:12;;;;;;;;;;;;;;;20.66;68.39;101017.84;5006967;28;20550;-81
2023/05/22 07:35:44;;;;;;;;;;;;;;;20.70;68.43;101024.56;4999744;28;19983;-82
2023/05/22 07:38:11;;;;;;;;;;;;;;;20.72;68.51;101021.63;5010492;28;19928;-80
2023/05/22 07:40:39;;;;;;;;;;;;;;;20.85;68.21;101027.19;5032686;28;19932;-81
2023/05/22 07:43:09;;;;;;;;;;;;;;;20.93;67.64;101023.50;5023865;28;19931;-83
2023/05/22 07:45:38;;;;;;;;;;;;;;;21.02;67.27;101021.47;5019454;28;20383;-83
2023/05/22 07:48:05;;;;;;;;;;;;;;;21.02;66.90;101030.44;5041264;28;20211;-83
2023/05/22 07:50:33;;;;;;;;;;;;;;;21.16;66.36;101019.72;5028333;28;19997;-82
2023/05/22 07:53:05;;;;;;;;;;;;;;;21.23;65.68;101023.31;5015943;28;20070;-77
2023/05/22 07:55:32;;;;;;;;;;;;;;;21.27;65.31;101024.59;5012607;28;19929;-83
2023/05/22 07:58:05;;;;;;;;;;;;;;;21.28;65.64;101016.28;5018787;28;19925;-81
2023/05/22 08:00:32;;;;;;;;;;;;;;;21.25;65.53;101015.88;5022061;28;20126;-80
2023/05/22 08:03:06;;;;;;;;;;;;;;;21.27;65.88;101013.81;5040879;28;19925;-82
2023/05/22 08:05:33;;;;;;;;;;;;;;;21.36;65.50;101012.63;4997495;28;20267;-83
2023/05/22 08:08:01;;;;;;;;;;;;;;;21.07;65.70;100954.28;5005296;28;20480;-83
2023/05/22 08:10:32;;;;;;;;;;;;;;;21.15;65.48;100964.09;5004451;28;19925;-83
2023/05/22 08:13:14;;;;;;;;;;;;;;;21.47;65.63;101009.38;4991951;28;20066;-84
2023/05/22 08:15:41;;;;;;;;;;;;;;;21.48;66.43;101008.38;4998122;28;20129;-85
2023/05/22 08:18:07;;;;;;;;;;;;;;;21.53;65.64;101014.00;4979485;28;19925;-82
2023/05/22 08:20:37;;;;;;;;;;;;;;;21.76;64.17;101007.47;4980110;28;19932;-85
2023/05/22 08:23:04;;;;;;;;;;;;;;;21.78;64.52;101008.13;4994264;28;20805;-85
2023/05/22 08:25:31;;;;;;;;;;;;;;;21.74;64.39;101002.25;4982244;28;20466;-83
2023/05/22 08:27:58;;;;;;;;;;;;;;;21.86;64.46;101001.69;5001520;28;20398;-85
2023/05/22 08:30:26;;;;;;;;;;;;;;;22.03;62.29;101007.59;4985511;28;20149;-84
2023/05/22 08:32:56;;;;;;;;;;;;;;;21.95;63.25;101001.31;5015880;28;20289;-83
2023/05/22 08:35:27;;;;;;;;;;;;;;;22.03;62.37;101002.19;5004600;28;19925;-85
2023/05/22 08:37:59;;;;;;;;;;;;;;;21.83;62.10;100948.88;5006593;28;19925;-85
2023/05/22 08:40:33;;;;;;;;;;;;;;;22.08;61.76;100999.72;5014378;28;20310;-83
2023/05/22 08:43:10;;;;;;;;;;;;;;;22.10;62.23;100992.22;5005149;28;19996;-83
2023/05/22 08:45:41;;;;;;;;;;;;;;;22.18;62.77;100992.03;5004147;28;19925;-85
2023/05/22 08:48:10;;;;;;;;;;;;;;;22.27;61.63;100993.56;4988933;28;19947;-84
2023/05/22 08:50:40;;;;;;;;;;;;;;;22.24;61.70;100995.84;4999591;28;20411;-84
2023/05/22 08:53:11;;;;;;;;;;;;;;;22.39;61.25;100994.63;5002074;28;20342;-84
2023/05/22 08:55:38;;;;;;;;;;;;;;;22.55;61.23;100997.97;4993988;28;20020;-84
2023/05/22 08:58:05;;;;;;;;;;;;;;;22.59;60.59;100996.53;4999336;28;20317;-84
2023/05/22 09:00:32;;;;;;;;;;;;;;;22.69;60.53;100996.97;4994535;28;20008;-84
2023/05/22 09:03:01;;;;;;;;;;;;;;;22.68;61.08;100989.88;4996852;28;20074;-84
2023/05/22 09:05:29;;;;;;;;;;;;;;;22.69;60.44;100988.84;5031883;28;20153;-84
2023/05/22 09:07:56;;;;;;;;;;;;;;;22.92;59.31;100985.75;5027627;28;20096;-83
2023/05/22 09:10:30;;;;;;;;;;;;;;;22.90;59.53;100981.56;5032759;28;20434;-84
2023/05/22 09:13:00;;;;;;;;;;;;;;;22.99;59.44;100983.06;5012913;28;19925;-85
2023/05/22 09:15:28;;;;;;;;;;;;;;;23.00;59.07;100984.72;5008802;28;20011;-83
2023/05/22 09:17:55;;;;;;;;;;;;;;;23.09;58.96;100980.75;5029862;28;19925;-83
2023/05/22 09:20:22;;;;;;;;;;;;;;;23.08;58.59;100989.91;5011801;28;19947;-83
2023/05/22 09:22:51;;;;;;;;;;;;;;;23.14;58.85;100982.84;5013125;28;20144;-84
2023/05/22 09:25:18;;;;;;;;;;;;;;;23.25;57.25;100995.72;5000680;28;19924;-83
2023/05/22 09:27:49;;;;;;;;;;;;;;;23.01;59.05;100940.34;5017478;28;20501;-84
2023/05/22 09:30:16;;;;;;;;;;;;;;;23.36;57.92;100989.69;5018602;28;20394;-84
2023/05/22 09:32:45;;;;;;;;;;;;;;;23.49;57.86;100994.22;5015314;28;19956;-83
2023/05/22 09:35:15;;;;;;;;;;;;;;;23.54;56.78;100990.88;5020114;28;20033;-84
2023/05/22 09:37:42;;;;;;;;;;;;;;;23.63;56.68;100992.31;5025240;28;19925;-84
2023/05/22 09:40:14;;;;;;;;;;;;;;;23.70;56.51;100993.13;5014072;28;20367;-83
2023/05/22 09:42:45;;;;;;;;;;;;;;;23.78;57.02;100986.66;5027006;28;20028;-84
2023/05/22 09:45:14;;;;;;;;;;;;;;;23.71;55.99;100945.16;5014704;28;19929;-84
2023/05/22 09:47:47;;;;;;;;;;;;;;;23.95;54.75;100985.13;5018800;28;19929;-82
2023/05/22 09:50:14;;;;;;;;;;;;;;;23.95;55.46;100985.13;5010279;28;20176;-83
2023/05/22 09:52:43;;;;;;;;;;;;;;;24.07;55.31;100988.00;4990893;28;19928;-84
2023/05/22 09:55:14;;;;;;;;;;;;;;;24.17;55.51;100982.09;5010421;28;19925;-84
2023/05/22 09:57:43;;;;;;;;;;;;;;;24.41;54.56;100980.50;4981265;28;19990;-82
2023/05/22 10:00:22;;;;;;;;;;;;;;;24.45;54.54;100979.84;5031471;28;19955;-83
2023/05/22 10:02:52;;;;;;;;;;;;;;;24.46;54.30;100975.28;5012076;28;19979;-82
2023/05/22 10:05:22;;;;;;;;;;;;;;;24.50;54.54;100974.63;5027234;28;19933;-83
2023/05/22 10:07:53;;;;;;;;;;;;;;;24.72;53.01;100971.56;5024362;28;19929;-83
2023/05/22 10:10:21;;;;;;;;;;;;;;;24.82;53.79;100974.59;5019869;28;20240;-83
2023/05/22 10:12:48;;;;;;;;;;;;;;;25.00;53.46;100967.53;5020676;28;20002;-83
2023/05/22 10:15:16;;;;;;;;;;;;;;;25.00;52.53;100959.41;5005055;28;20229;-83
2023/05/22 10:17:45;;;;;;;;;;;;;;;25.12;52.67;100963.91;5028375;28;19924;-83
2023/05/22 10:20:15;;;;;;;;;;;;;;;25.28;53.19;100959.78;5012779;28;19925;-84
2023/05/22 10:22:49;;;;;;;;;;;;;;;25.48;51.48;100961.44;5007682;28;20392;-82
2023/05/22 10:25:20;;;;;;;;;;;;;;;25.61;51.30;100961.31;5008403;28;20124;-83
2023/05/22 10:27:50;;;;;;;;;;;;;;;25.72;50.97;100956.97;5000152;28;20190;-84
2023/05/22 10:30:18;;;;;;;;;;;;;;;25.94;50.28;100960.91;5002337;28;19925;-84
2023/05/22 10:32:47;;;;;;;;;;;;;;;25.81;50.07;100955.63;4996478;28;19925;-83
2023/05/22 10:35:15;;;;;;;;;;;;;;;25.85;50.81;100956.84;5009612;28;20359;-82
2023/05/22 10:37:49;;;;;;;;;;;;;;;26.00;51.27;100954.56;5007943;28;19929;-83
2023/05/22 10:40:20;;;;;;;;;;;;;;;26.07;49.85;100957.19;5019522;28;20461;-84
2023/05/22 10:42:48;;;;;;;;;;;;;;;26.17;49.37;100957.47;5009823;28;19936;-85
2023/05/22 10:45:15;;;;;;;;;;;;;;;26.40;49.88;100947.69;5024365;28;20293;-84
2023/05/22 10:47:42;;;;;;;;;;;;;;;26.54;48.56;100960.06;5032054;28;19931;-83
2023/05/22 10:50:12;;;;;;;;;;;;;;;26.64;47.07;100952.16;4994241;28;20012;-84
2023/05/22 10:52:39;;;;;;;;;;;;;;;26.72;46.69;100950.16;5014660;28;19929;-81
2023/05/22 10:55:11;;;;;;;;;;;;;;;26.47;46.31;100907.59;4982591;28;20606;-83
2023/05/22 10:57:41;;;;;;;;;;;;;;;26.88;46.98;100948.63;4968999;28;19976;-82
2023/05/22 11:00:17;;;;;;;;;;;;;;;27.07;46.66;100953.72;4984911;28;19925;-82
2023/05/22 11:02:48;;;;;;;;;;;;;;;26.98;47.02;100906.09;5015442;28;20004;-83
2023/05/22 11:05:20;;;;;;;;;;;;;;;27.38;47.35;100946.28;4995232;28;20367;-82
2023/05/22 11:07:47;;;;;;;;;;;;;;;27.47;47.56;100954.91;4996499;28;19925;-84
2023/05/22 11:10:35;;;;;;;;;;;;;;;27.37;46.09;100952.78;5015877;28;20334;-84
2023/05/22 11:13:16;;;;;;;;;;;;;;;27.03;45.60;100911.66;5002814;28;19978;-83
2023/05/22 11:15:45;;;;;;;;;;;;;;;27.38;45.45;100943.53;5026996;28;19960;-81
2023/05/22 11:18:15;;;;;;;;;;;;;;;27.55;45.58;100938.19;5025480;28;20240;-84
2023/05/22 11:20:43;;;;;;;;;;;;;;;27.65;46.31;100943.00;5019323;28;20123;-84
2023/05/22 11:23:09;;;;;;;;;;;;;;;27.94;45.71;100935.72;5036749;28;20286;-83
2023/05/22 11:25:38;;;;;;;;;;;;;;;27.94;46.96;100924.78;5038818;28;20294;-84
2023/05/22 11:28:10;;;;;;;;;;;;;;;28.09;46.15;100932.44;5031051;28;20280;-84
2023/05/22 11:30:37;;;;;;;;;;;;;;;28.18;44.65;100930.13;5034094;28;19937;-83
2023/05/22 11:33:05;;;;;;;;;;;;;;;28.20;44.61;100923.34;5039114;28;20254;-84
2023/05/22 11:35:32;;;;;;;;;;;;;;;28.28;42.36;100920.22;5005801;28;19987;-81
2023/05/22 11:38:02;;;;;;;;;;;;;;;28.32;42.63;100918.63;4977970;28;19925;-84
2023/05/22 11:40:29;;;;;;;;;;;;;;;28.52;43.32;100917.34;5001941;28;20358;-84
2023/05/22 11:42:56;;;;;;;;;;;;;;;28.58;43.03;100913.63;4980076;28;20275;-83
2023/05/22 11:45:22;;;;;;;;;;;;;;;28.68;43.38;100916.53;4994932;28;19929;-83
2023/05/22 11:47:49;;;;;;;;;;;;;;;28.49;42.14;100871.44;4990241;28;20389;-83
2023/05/22 11:50:17;;;;;;;;;;;;;;;28.85;41.23;100908.31;4990217;28;20167;-84
2023/05/22 11:53:02;;;;;;;;;;;;;;;29.07;41.89;100894.72;5014823;28;19935;-83
2023/05/22 11:55:34;;;;;;;;;;;;;;;29.29;42.45;100905.66;5021910;28;19925;-84
2023/05/22 11:58:01;;;;;;;;;;;;;;;29.46;41.49;100905.59;5007685;28;19936;-85
2023/05/22 12:00:29;;;;;;;;;;;;;;;29.54;42.36;100902.44;5019259;28;20097;-84
2023/05/22 12:02:56;;;;;;;;;;;;;;;29.66;41.11;100896.84;5027527;28;19951;-82
2023/05/22 12:05:30;;;;;;;;;;;;;;;29.79;40.35;100903.84;5046277;28;19924;-84
2023/05/22 12:07:57;;;;;;;;;;;;;;;29.91;39.56;100898.22;5044844;28;19931;-85
2023/05/22 12:10:25;;;;;;;;;;;;;;;30.04;39.11;100906.00;5040019;28;20086;-85
2023/05/22 12:12:55;;;;;;;;;;;;;;;30.09;39.76;100899.75;5030429;28;19931;-85
2023/05/22 12:15:23;;;;;;;;;;;;;;;30.27;40.24;100891.19;5039724;28;19931;-84
2023/05/22 12:17:54;;;;;;;;;;;;;;;30.50;38.95;100891.91;5040508;28;20188;-84
2023/05/22 12:20:21;;;;;;;;;;;;;;;30.57;38.76;100890.59;5033899;28;19929;-85
2023/05/22 12:22:48;;;;;;;;;;;;;;;30.66;39.10;100885.47;5016160;28;19924;-85
2023/05/22 12:25:16;;;;;;;;;;;;;;;30.87;38.05;100890.00;5023057;28;19933;-83
2023/05/22 12:27:44;;;;;;;;;;;;;;;30.53;38.20;100894.13;5040927;28;19968;-85
2023/05/22 12:30:14;;;;;;;;;;;;;;;30.24;39.29;100886.19;5034695;28;20333;-86
2023/05/22 12:32:49;;;;;;;;;;;;;;;29.99;39.57;100884.88;5033035;28;20237;-84
2023/05/22 12:35:17;;;;;;;;;;;;;;;30.10;39.99;100890.44;5008451;28;20015;-85
2023/05/22 12:37:51;;;;;;;;;;;;;;;30.47;39.16;100878.75;4998039;28;19929;-84
2023/05/22 12:40:23;;;;;;;;;;;;;;;30.79;38.75;100882.25;4990215;28;19977;-83
2023/05/22 12:42:52;;;;;;;;;;;;;;;30.92;38.74;100885.66;5004621;28;19932;-84
2023/05/22 12:45:21;;;;;;;;;;;;;;;31.14;37.70;100878.06;5018837;28;19925;-84